createdAt,value
2022-10-25T00:01:36.403Z,14.63
2022-10-25T00:04:08.445Z,14.62
2022-10-25T00:06:40.408Z,14.55
2022-10-25T00:09:12.443Z,14.51
2022-10-25T00:11:44.860Z,14.59
2022-10-25T00:14:19.416Z,14.49
2022-10-25T00:16:51.415Z,14.52
2022-10-25T00:19:23.723Z,14.52
2022-10-25T00:21:55.711Z,14.53
2022-10-25T00:24:27.788Z,14.56
2022-10-25T00:26:59.715Z,14.56
2022-10-25T00:29:32.241Z,14.57
2022-10-25T00:32:04.304Z,14.55
2022-10-25T00:34:36.273Z,14.51
2022-10-25T00:37:08.177Z,14.47
2022-10-25T00:39:40.487Z,14.50
2022-10-25T00:42:21.342Z,14.52
2022-10-25T00:44:56.872Z,14.41
2022-10-25T00:47:44.876Z,14.48
2022-10-25T00:50:34.325Z,14.48
2022-10-25T00:53:13.385Z,14.55
2022-10-25T00:55:52.341Z,14.53
2022-10-25T00:58:28.922Z,14.57
2022-10-25T01:01:01.596Z,14.62
2022-10-25T01:03:35.217Z,14.66
2022-10-25T01:06:18.185Z,14.76
2022-10-25T01:08:52.369Z,14.87
2022-10-25T01:11:24.916Z,14.85
2022-10-25T01:13:57.802Z,14.84
2022-10-25T01:17:13.294Z,14.89
2022-10-25T01:20:25.155Z,14.99
2022-10-25T01:23:24.538Z,14.95
2022-10-25T01:26:23.907Z,14.79
2022-10-25T01:29:32.177Z,14.79
2022-10-25T01:32:43.752Z,14.83
2022-10-25T01:35:51.706Z,14.83
2022-10-25T01:38:48.465Z,14.88
2022-10-25T01:41:28.737Z,14.85
2022-10-25T01:44:18.651Z,14.83
2022-10-25T01:47:02.085Z,14.88
2022-10-25T01:49:59.525Z,14.87
2022-10-25T01:52:31.688Z,14.94
2022-10-25T01:55:11.908Z,15.00
2022-10-25T01:58:07.529Z,14.95
2022-10-25T02:01:18.297Z,14.91
2022-10-25T02:04:08.346Z,14.87
2022-10-25T02:06:51.878Z,14.69
2022-10-25T02:10:03.749Z,14.80
2022-10-25T02:12:53.697Z,14.84
2022-10-25T02:15:43.567Z,14.80
2022-10-25T02:18:21.032Z,14.75
2022-10-25T02:20:54.993Z,14.79
2022-10-25T02:23:27.559Z,14.76
2022-10-25T02:26:00.314Z,14.81
2022-10-25T02:28:34.733Z,14.68
2022-10-25T02:31:15.425Z,14.73
2022-10-25T02:33:48.666Z,14.75
2022-10-25T02:36:22.794Z,14.75
2022-10-25T02:38:55.225Z,14.79
2022-10-25T02:41:27.527Z,14.80
2022-10-25T02:43:59.872Z,14.77
2022-10-25T02:46:31.785Z,14.84
2022-10-25T02:49:03.931Z,14.87
2022-10-25T02:51:35.855Z,14.83
2022-10-25T02:54:07.786Z,14.87
2022-10-25T02:56:39.836Z,14.84
2022-10-25T02:59:15.742Z,14.80
2022-10-25T03:01:48.698Z,14.74
2022-10-25T03:04:20.801Z,14.70
2022-10-25T03:06:52.780Z,14.57
2022-10-25T03:09:24.800Z,14.56
2022-10-25T03:11:56.873Z,14.58
2022-10-25T03:14:28.754Z,14.61
2022-10-25T03:17:00.655Z,14.60
2022-10-25T03:19:32.535Z,14.64
2022-10-25T03:22:04.535Z,14.64
2022-10-25T03:24:36.536Z,14.69
2022-10-25T03:27:08.510Z,14.63
2022-10-25T03:29:40.530Z,14.67
2022-10-25T03:32:12.659Z,14.81
2022-10-25T03:34:44.539Z,14.81
2022-10-25T03:37:16.553Z,14.82
2022-10-25T03:39:48.534Z,14.81
2022-10-25T03:42:20.589Z,14.89
2022-10-25T03:44:53.674Z,14.91
2022-10-25T03:47:25.569Z,14.82
2022-10-25T03:49:57.684Z,14.86
2022-10-25T03:52:29.826Z,14.82
2022-10-25T03:55:02.007Z,14.87
2022-10-25T03:57:34.573Z,14.86
2022-10-25T04:00:07.276Z,14.87
2022-10-25T04:02:39.489Z,14.86
2022-10-25T04:05:11.393Z,14.85
2022-10-25T04:07:43.300Z,14.89
2022-10-25T04:10:17.430Z,14.91
2022-10-25T04:15:41.283Z,14.93
2022-10-25T04:18:13.187Z,14.98
2022-10-25T04:20:45.378Z,15.01
2022-10-25T04:23:17.300Z,14.94
2022-10-25T04:25:50.021Z,14.90
2022-10-25T04:28:22.457Z,14.94
2022-10-25T04:30:54.429Z,14.92
2022-10-25T04:33:26.386Z,15.01
2022-10-25T04:35:59.303Z,14.98
2022-10-25T04:38:31.209Z,14.94
2022-10-25T04:41:03.136Z,14.80
2022-10-25T04:43:36.354Z,14.63
2022-10-25T04:46:08.902Z,14.65
2022-10-25T04:48:42.549Z,14.68
2022-10-25T04:51:15.196Z,14.71
2022-10-25T04:53:47.162Z,14.73
2022-10-25T04:56:19.098Z,14.76
2022-10-25T04:58:51.069Z,14.64
2022-10-25T05:01:23.090Z,14.57
2022-10-25T05:03:55.134Z,14.58
2022-10-25T05:06:27.740Z,14.64
2022-10-25T05:08:59.687Z,14.63
2022-10-25T05:11:32.657Z,14.73
2022-10-25T05:14:04.709Z,14.81
2022-10-25T05:16:36.634Z,14.77
2022-10-25T05:19:08.632Z,14.65
2022-10-25T05:21:40.651Z,14.62
2022-10-25T05:24:12.634Z,14.68
2022-10-25T05:26:44.576Z,14.76
2022-10-25T05:29:16.522Z,14.66
2022-10-25T05:31:48.438Z,14.65
2022-10-25T05:34:20.491Z,14.61
2022-10-25T05:36:52.480Z,14.64
2022-10-25T05:39:24.691Z,14.69
2022-10-25T05:41:56.682Z,14.71
2022-10-25T05:44:28.576Z,14.65
2022-10-25T05:47:00.505Z,14.62
2022-10-25T05:49:34.214Z,14.61
2022-10-25T05:52:10.061Z,14.72
2022-10-25T05:54:42.059Z,14.75
2022-10-25T05:57:13.992Z,14.69
2022-10-25T05:59:45.903Z,14.55
2022-10-25T06:02:17.968Z,14.53
2022-10-25T06:04:52.357Z,14.53
2022-10-25T06:07:24.646Z,14.54
2022-10-25T06:09:56.550Z,14.52
2022-10-25T06:12:28.535Z,14.54
2022-10-25T06:15:00.431Z,14.48
2022-10-25T06:17:32.508Z,14.56
2022-10-25T06:20:04.899Z,14.57
2022-10-25T06:22:36.905Z,14.57
2022-10-25T06:25:09.286Z,14.59
2022-10-25T06:27:41.226Z,14.57
2022-10-25T06:30:13.189Z,14.59
2022-10-25T06:32:45.354Z,14.58
2022-10-25T06:35:17.480Z,14.62
2022-10-25T06:37:49.405Z,14.66
2022-10-25T06:42:58.093Z,14.68
2022-10-25T06:45:30.040Z,14.66
2022-10-25T06:48:02.161Z,14.70
2022-10-25T06:50:34.436Z,14.74
2022-10-25T06:53:06.467Z,14.82
2022-10-25T06:55:38.380Z,14.85
2022-10-25T06:58:10.347Z,14.75
2022-10-25T07:00:43.771Z,14.80
2022-10-25T07:03:17.945Z,14.79
2022-10-25T07:05:49.847Z,14.79
2022-10-25T07:08:23.098Z,14.85
2022-10-25T07:10:56.059Z,14.94
2022-10-25T07:13:28.128Z,14.94
2022-10-25T07:16:06.014Z,14.93
2022-10-25T07:18:38.311Z,14.91
2022-10-25T07:21:21.193Z,14.88
2022-10-25T07:23:53.287Z,14.92
2022-10-25T07:26:30.885Z,14.98
2022-10-25T07:29:04.566Z,15.08
2022-10-25T07:31:44.489Z,15.14
2022-10-25T07:34:17.050Z,15.20
2022-10-25T07:36:49.005Z,15.23
2022-10-25T07:39:20.989Z,15.22
2022-10-25T07:41:54.166Z,15.04
2022-10-25T07:44:26.088Z,14.98
2022-10-25T07:46:58.070Z,15.03
2022-10-25T07:52:11.413Z,15.31
2022-10-25T07:57:35.137Z,15.60
2022-10-25T08:00:09.583Z,15.48
2022-10-25T08:02:41.613Z,15.48
2022-10-25T08:05:13.662Z,15.55
2022-10-25T08:07:45.834Z,15.65
2022-10-25T08:10:20.617Z,15.80
2022-10-25T08:12:55.214Z,15.79
2022-10-25T08:15:27.295Z,15.86
2022-10-25T08:18:03.851Z,15.98
2022-10-25T08:21:05.273Z,15.90
2022-10-25T08:23:28.448Z,15.84
2022-10-25T08:26:01.586Z,15.82
2022-10-25T08:28:33.651Z,15.90
2022-10-25T08:31:05.825Z,15.91
2022-10-25T08:33:37.795Z,16.01
2022-10-25T08:36:10.169Z,16.12
2022-10-25T08:38:42.065Z,16.26
2022-10-25T08:41:29.056Z,16.22
2022-10-25T08:44:37.595Z,15.88
2022-10-25T08:47:33.682Z,15.36
2022-10-25T08:50:36.980Z,15.02
2022-10-25T08:53:18.801Z,14.82
2022-10-25T08:56:15.296Z,14.77
2022-10-25T08:58:51.128Z,14.81
2022-10-25T09:01:34.409Z,14.94
2022-10-25T09:04:06.433Z,14.97
2022-10-25T09:06:54.265Z,14.86
2022-10-25T09:09:54.045Z,14.90
2022-10-25T09:13:08.485Z,15.08
2022-10-25T09:16:09.567Z,15.17
2022-10-25T09:18:59.283Z,15.33
2022-10-25T09:21:42.107Z,15.53
2022-10-25T09:24:28.915Z,15.81
2022-10-25T09:27:37.550Z,15.95
2022-10-25T09:30:12.952Z,16.05
2022-10-25T09:32:49.669Z,16.05
2022-10-25T09:35:46.666Z,15.92
2022-10-25T09:38:45.494Z,15.95
2022-10-25T09:41:54.074Z,15.90
2022-10-25T09:44:42.298Z,15.90
2022-10-25T09:47:54.045Z,15.97
2022-10-25T09:50:30.590Z,16.15
2022-10-25T09:53:16.667Z,16.32
2022-10-25T09:56:05.038Z,16.50
2022-10-25T09:58:45.012Z,16.53
2022-10-25T10:01:21.916Z,16.45
2022-10-25T10:04:00.951Z,16.55
2022-10-25T10:06:37.874Z,16.42
2022-10-25T10:09:13.507Z,16.43
2022-10-25T10:11:48.078Z,16.44
2022-10-25T10:14:41.664Z,16.59
2022-10-25T10:17:17.421Z,16.72
2022-10-25T10:20:28.064Z,16.87
2022-10-25T10:23:01.081Z,17.11
2022-10-25T10:25:34.712Z,17.00
2022-10-25T10:28:14.859Z,16.93
2022-10-25T10:30:55.604Z,16.85
2022-10-25T10:33:31.195Z,16.99
2022-10-25T10:36:28.105Z,17.13
2022-10-25T10:39:22.555Z,17.08
2022-10-25T10:42:15.253Z,16.79
2022-10-25T10:45:07.978Z,16.67
2022-10-25T10:47:54.363Z,16.50
2022-10-25T10:50:32.885Z,16.48
2022-10-25T10:53:21.665Z,16.67
2022-10-25T10:55:54.932Z,16.86
2022-10-25T10:58:39.891Z,17.03
2022-10-25T11:01:16.813Z,17.30
2022-10-25T11:04:00.403Z,17.43
2022-10-25T11:06:35.308Z,17.58
2022-10-25T11:09:23.231Z,17.45
2022-10-25T11:12:11.701Z,17.20
2022-10-25T11:14:43.707Z,17.10
2022-10-25T11:17:26.655Z,17.13
2022-10-25T11:20:31.917Z,16.94
2022-10-25T11:23:14.784Z,16.98
2022-10-25T11:26:07.369Z,17.05
2022-10-25T11:28:53.145Z,17.19
2022-10-25T11:32:05.781Z,17.30
2022-10-25T11:34:55.849Z,17.19
2022-10-25T11:38:17.077Z,17.08
2022-10-25T11:41:24.012Z,17.25
2022-10-25T11:44:46.599Z,17.29
2022-10-25T11:48:02.308Z,17.35
2022-10-25T11:50:59.414Z,17.31
2022-10-25T11:54:06.675Z,17.37
2022-10-25T11:56:48.105Z,17.37
2022-10-25T12:00:01.070Z,17.47
2022-10-25T12:02:35.874Z,17.45
2022-10-25T12:05:30.330Z,17.44
2022-10-25T12:08:47.070Z,17.30
2022-10-25T12:11:26.980Z,17.41
2022-10-25T12:14:05.305Z,17.42
2022-10-25T12:16:38.493Z,17.44
2022-10-25T12:19:30.634Z,17.38
2022-10-25T12:22:09.076Z,17.65
2022-10-25T12:25:02.137Z,18.00
2022-10-25T12:27:34.928Z,18.18
2022-10-25T12:30:16.574Z,18.29
2022-10-25T12:33:02.531Z,18.43
2022-10-25T12:35:43.089Z,18.49
2022-10-25T12:38:37.064Z,18.27
2022-10-25T12:41:27.769Z,18.06
2022-10-25T12:44:40.365Z,17.89
2022-10-25T12:47:23.432Z,17.63
2022-10-25T12:50:28.094Z,17.83
2022-10-25T12:53:23.049Z,17.98
2022-10-25T12:56:16.612Z,17.98
2022-10-25T12:59:22.775Z,18.06
2022-10-25T13:02:37.347Z,17.94
2022-10-25T13:05:33.734Z,18.00
2022-10-25T13:08:07.335Z,17.92
2022-10-25T13:10:58.925Z,17.99
2022-10-25T13:13:41.366Z,18.02
2022-10-25T13:16:31.420Z,18.30
2022-10-25T13:19:53.060Z,18.50
2022-10-25T13:22:39.280Z,18.53
2022-10-25T13:25:14.463Z,18.51
2022-10-25T13:28:11.338Z,18.36
2022-10-25T13:30:44.508Z,18.43
2022-10-25T13:33:19.387Z,18.42
2022-10-25T13:35:51.367Z,18.41
2022-10-25T13:38:30.348Z,18.17
2022-10-25T13:41:16.110Z,17.99
2022-10-25T13:44:06.248Z,17.59
2022-10-25T13:46:41.150Z,17.49
2022-10-25T13:49:43.717Z,17.72
2022-10-25T13:52:32.797Z,17.78
2022-10-25T13:55:06.939Z,17.80
2022-10-25T13:57:56.677Z,17.78
2022-10-25T14:00:41.567Z,17.70
2022-10-25T14:03:13.943Z,17.78
2022-10-25T14:05:57.383Z,17.88
2022-10-25T14:08:51.098Z,17.91
2022-10-25T14:11:35.435Z,17.85
2022-10-25T14:14:33.208Z,17.91
2022-10-25T14:17:41.531Z,18.00
2022-10-25T14:20:29.738Z,18.08
2022-10-25T14:23:08.210Z,18.17
2022-10-25T14:25:43.026Z,18.18
2022-10-25T14:28:21.427Z,18.11
2022-10-25T14:31:04.627Z,17.92
2022-10-25T14:33:42.498Z,17.78
2022-10-25T14:36:32.601Z,17.56
2022-10-25T14:39:16.490Z,17.47
2022-10-25T14:41:53.806Z,17.27
2022-10-25T14:44:29.388Z,17.25
2022-10-25T14:47:01.364Z,17.30
2022-10-25T14:49:33.308Z,17.11
2022-10-25T14:52:07.976Z,16.94
2022-10-25T14:54:40.971Z,16.93
2022-10-25T14:57:13.493Z,16.94
2022-10-25T14:59:53.955Z,16.97
2022-10-25T15:02:37.585Z,16.96
2022-10-25T15:05:23.898Z,16.83
2022-10-25T15:07:58.641Z,16.82
2022-10-25T15:10:41.292Z,16.73
2022-10-25T15:13:53.415Z,16.79
2022-10-25T15:16:44.220Z,16.73
2022-10-25T15:19:20.664Z,16.76
2022-10-25T15:21:53.608Z,16.65
2022-10-25T15:24:28.220Z,16.57
2022-10-25T15:27:07.498Z,16.53
2022-10-25T15:29:42.558Z,16.38
2022-10-25T15:32:17.733Z,16.39
2022-10-25T15:35:01.357Z,16.42
2022-10-25T15:37:33.326Z,16.45
2022-10-25T15:40:15.961Z,16.47
2022-10-25T15:42:48.168Z,16.45
2022-10-25T15:45:20.294Z,16.43
2022-10-25T15:47:55.170Z,16.43
2022-10-25T15:50:27.422Z,16.37
2022-10-25T15:53:01.052Z,16.29
2022-10-25T15:55:33.341Z,16.27
2022-10-25T15:58:09.660Z,16.18
2022-10-25T16:00:43.710Z,16.02
2022-10-25T16:03:23.435Z,15.96
2022-10-25T16:05:55.407Z,15.94
2022-10-25T16:08:27.424Z,15.90
2022-10-25T16:10:59.716Z,15.93
2022-10-25T16:13:38.084Z,15.87
2022-10-25T16:16:41.146Z,15.81
2022-10-25T16:19:19.374Z,15.80
2022-10-25T16:21:51.282Z,15.78
2022-10-25T16:24:23.255Z,15.79
2022-10-25T16:26:55.243Z,15.73
2022-10-25T16:29:27.495Z,15.75
2022-10-25T16:31:59.621Z,15.67
2022-10-25T16:34:32.170Z,15.73
2022-10-25T16:37:07.732Z,15.69
2022-10-25T16:39:43.429Z,15.75
2022-10-25T16:42:31.501Z,15.76
2022-10-25T16:45:38.756Z,15.79
2022-10-25T16:48:10.676Z,15.78
2022-10-25T16:50:42.763Z,15.76
2022-10-25T16:53:16.019Z,15.72
2022-10-25T16:55:48.135Z,15.69
2022-10-25T16:58:20.129Z,15.62
2022-10-25T17:00:52.261Z,15.57
2022-10-25T17:03:24.288Z,15.50
2022-10-25T17:05:56.469Z,15.46
2022-10-25T17:08:28.395Z,15.40
2022-10-25T17:11:00.345Z,15.33
2022-10-25T17:13:32.293Z,15.27
2022-10-25T17:16:07.064Z,15.21
2022-10-25T17:18:39.071Z,15.16
2022-10-25T17:21:15.271Z,15.14
2022-10-25T17:23:47.321Z,15.11
2022-10-25T17:26:19.402Z,15.01
2022-10-25T17:28:51.415Z,14.97
2022-10-25T17:31:23.364Z,14.93
2022-10-25T17:33:56.914Z,14.95
2022-10-25T17:36:31.529Z,14.90
2022-10-25T17:39:04.345Z,14.85
2022-10-25T17:41:36.378Z,14.82
2022-10-25T17:44:11.281Z,14.81
2022-10-25T17:49:35.197Z,14.77
2022-10-25T17:52:08.410Z,14.75
2022-10-25T17:54:40.430Z,14.68
2022-10-25T17:57:12.446Z,14.69
2022-10-25T17:59:44.347Z,14.63
2022-10-25T18:02:16.518Z,14.61
2022-10-25T18:05:02.354Z,14.57
2022-10-25T18:07:41.335Z,14.56
2022-10-25T18:10:13.417Z,14.53
2022-10-25T18:12:45.533Z,14.50
2022-10-25T18:15:23.118Z,14.41
2022-10-25T18:17:55.244Z,14.37
2022-10-25T18:20:27.140Z,14.33
2022-10-25T18:22:59.097Z,14.30
2022-10-25T18:25:31.193Z,14.27
2022-10-25T18:28:03.218Z,14.26
2022-10-25T18:30:35.200Z,14.28
2022-10-25T18:33:13.398Z,14.24
2022-10-25T18:35:45.404Z,14.24
2022-10-25T18:38:17.990Z,14.23
2022-10-25T18:40:49.977Z,14.19
2022-10-25T18:43:23.741Z,14.07
2022-10-25T18:45:59.376Z,14.03
2022-10-25T18:48:31.342Z,14.06
2022-10-25T18:51:10.180Z,14.04
2022-10-25T18:53:42.246Z,14.04
2022-10-25T18:56:19.610Z,14.02
2022-10-25T18:58:56.885Z,13.99
2022-10-25T19:01:32.680Z,13.94
2022-10-25T19:04:05.372Z,13.93
2022-10-25T19:06:37.490Z,13.93
2022-10-25T19:09:09.565Z,13.93
2022-10-25T19:11:41.550Z,13.92
2022-10-25T19:14:13.601Z,13.88
2022-10-25T19:16:45.692Z,13.84
2022-10-25T19:19:17.700Z,13.87
2022-10-25T19:21:49.874Z,13.90
2022-10-25T19:24:22.983Z,13.88
2022-10-25T19:26:54.909Z,13.86
2022-10-25T19:29:27.045Z,13.77
2022-10-25T19:31:59.062Z,13.74
2022-10-25T19:34:31.038Z,13.73
2022-10-25T19:37:04.627Z,13.72
2022-10-25T19:39:37.926Z,13.66
2022-10-25T19:42:11.508Z,13.60
2022-10-25T19:44:43.513Z,13.60
2022-10-25T19:47:15.526Z,13.59
2022-10-25T19:49:47.564Z,13.60
2022-10-25T19:52:19.542Z,13.61
2022-10-25T19:54:51.513Z,13.56
2022-10-25T19:57:23.461Z,13.53
2022-10-25T19:59:55.501Z,13.48
2022-10-25T20:02:29.493Z,13.49
2022-10-25T20:05:01.790Z,13.42
2022-10-25T20:07:33.953Z,13.44
2022-10-25T20:10:06.948Z,13.38
2022-10-25T20:12:38.974Z,13.36
2022-10-25T20:15:14.631Z,13.35
2022-10-25T20:17:46.808Z,13.35
2022-10-25T20:20:19.048Z,13.35
2022-10-25T20:22:51.003Z,13.33
2022-10-25T20:25:23.028Z,13.30
2022-10-25T20:27:55.102Z,13.24
2022-10-25T20:30:27.040Z,13.25
2022-10-25T20:32:59.057Z,13.25
2022-10-25T20:35:36.549Z,13.23
2022-10-25T20:38:12.615Z,13.25
2022-10-25T20:40:45.349Z,13.18
2022-10-25T20:43:17.291Z,13.12
2022-10-25T20:45:49.311Z,13.13
2022-10-25T20:48:21.208Z,13.13
2022-10-25T20:50:53.527Z,13.10
2022-10-25T20:53:25.602Z,13.10
2022-10-25T20:55:57.672Z,13.07
2022-10-25T20:58:29.681Z,13.04
2022-10-25T21:01:02.112Z,13.05
2022-10-25T21:03:34.843Z,13.00
2022-10-25T21:06:10.678Z,12.96
2022-10-25T21:08:42.687Z,12.97
2022-10-25T21:11:14.706Z,12.96
2022-10-25T21:13:46.703Z,12.96
2022-10-25T21:16:18.625Z,12.93
2022-10-25T21:18:50.543Z,12.91
2022-10-25T21:21:22.497Z,12.90
2022-10-25T21:23:57.161Z,12.91
2022-10-25T21:26:29.531Z,12.92
2022-10-25T21:29:01.650Z,12.90
2022-10-25T21:31:33.613Z,12.90
2022-10-25T21:34:05.611Z,12.91
2022-10-25T21:36:37.617Z,12.93
2022-10-25T21:39:09.562Z,12.94
2022-10-25T21:41:41.476Z,12.99
2022-10-25T21:44:13.394Z,13.02
2022-10-25T21:46:45.435Z,13.04
2022-10-25T21:49:17.330Z,13.06
2022-10-25T21:51:49.321Z,13.06
2022-10-25T21:54:22.149Z,13.03
2022-10-25T21:56:54.630Z,12.97
2022-10-25T21:59:26.888Z,12.93
2022-10-25T22:01:59.122Z,12.93
2022-10-25T22:04:31.313Z,12.87
2022-10-25T22:07:03.349Z,12.80
2022-10-25T22:09:35.847Z,12.71
2022-10-25T22:12:07.936Z,12.70
2022-10-25T22:14:39.861Z,12.65
2022-10-25T22:17:11.810Z,12.66
2022-10-25T22:19:43.774Z,12.63
2022-10-25T22:22:15.729Z,12.65
2022-10-25T22:24:47.685Z,12.61
2022-10-25T22:27:19.675Z,12.61
2022-10-25T22:29:51.609Z,12.58
2022-10-25T22:32:23.576Z,12.52
2022-10-25T22:34:55.536Z,12.44
2022-10-25T22:37:27.509Z,12.38
2022-10-25T22:39:59.405Z,12.35
2022-10-25T22:42:31.326Z,12.31
2022-10-25T22:45:03.389Z,12.22
2022-10-25T22:47:35.349Z,12.17
2022-10-25T22:50:07.559Z,12.09
2022-10-25T22:52:39.578Z,12.08
2022-10-25T22:55:11.595Z,12.06
2022-10-25T22:57:43.681Z,12.07
2022-10-25T23:00:15.719Z,12.06
2022-10-25T23:02:47.936Z,12.10
2022-10-25T23:05:20.115Z,12.09
2022-10-25T23:07:53.555Z,12.11
2022-10-25T23:10:25.480Z,12.06
2022-10-25T23:12:57.395Z,12.09
2022-10-25T23:15:29.294Z,12.10
2022-10-25T23:18:01.270Z,12.07
2022-10-25T23:20:33.198Z,12.06
2022-10-25T23:23:05.090Z,12.06
2022-10-25T23:25:37.013Z,12.03
2022-10-25T23:28:08.926Z,12.04
2022-10-25T23:30:42.239Z,12.04
2022-10-25T23:33:14.231Z,12.00
2022-10-25T23:35:46.119Z,12.01
2022-10-25T23:38:18.028Z,11.97
2022-10-25T23:40:50.031Z,11.91
2022-10-25T23:43:21.937Z,11.87
2022-10-25T23:45:53.952Z,11.86
2022-10-25T23:48:25.969Z,11.89
2022-10-25T23:51:06.938Z,11.91
2022-10-25T23:53:39.250Z,11.92
2022-10-25T23:56:13.353Z,11.88
2022-10-25T23:58:45.272Z,11.83
